HLF weather

Centro Tecnologico Heliport
Atizapán de Zaragoza, México (state), Mexico

Public forecast

Using degrees Celsius for public forecast. Weather courtesy of forecast.io.

Closest aviation weather report (METAR) to Centro Tecnologico Heliport

Closest report is Licenciado Benito Juarez International Airport, 13.2 nm (24.4 km) ESE. Retrieved 2020/05/31 14:45 UTC (49 minutes ago):

MMMX 311445Z 00000KT 8SM FEW090 17/08 A3034 NOSIG RMK SLP112 52007 955 8/030 HZY ISOL CU

Closest aviation forecast (TAF) to Centro Tecnologico Heliport

Closest forecast is Licenciado Benito Juarez International Airport, 13.2 nm (24.4 km) ESE. Retrieved 2020/05/31 12:27 UTC (3 hours ago):

TAF MMMX 311019Z 3112/0118 04005KT P6SM SCT020 BKN080 TX25/3121Z TN12/3112Z BECMG 3117/3118 04005KT SCT020 FM312100 34015KT P6SM SCT020CB TEMPO 3122/0102 4SM TSRA BKN020CB BKN080 FM010300 30005KT 6SM HZ SCT020 BKN080